Time;durP1;ratioP1;P1;durP2;ratioP2;P2;SDS_P1;SDS_P2;PMS_P1;PMS_P2;Temp;Humidity;BMP_temperature;BMP_pressure;BME280_temperature;BME280_humidity;BME280_pressure;Samples;Min_cycle;Max_cycle;Signal;HPM_P1;HPM_P2
2023/12/08 00:00:18;;;;;;;1.00;1.00;;;;;;;1.15;68.53;98014.88;5044232;28;20048;-78
2023/12/08 00:02:43;;;;;;;1.10;1.10;;;;;;;1.33;68.30;97999.16;5053850;28;20051;-78
2023/12/08 00:05:09;;;;;;;1.10;1.10;;;;;;;1.39;67.22;97998.59;5052202;28;20071;-80
2023/12/08 00:07:35;;;;;;;1.10;1.10;;;;;;;1.39;67.13;97999.50;5053504;28;20483;-78
2023/12/08 00:10:01;;;;;;;1.10;1.10;;;;;;;1.43;66.59;97990.03;5056284;28;20079;-78
2023/12/08 00:12:26;;;;;;;1.10;1.10;;;;;;;1.45;66.20;97984.06;5055933;28;20138;-78
2023/12/08 00:14:52;;;;;;;1.00;1.00;;;;;;;1.46;66.72;97974.44;5053546;28;20072;-78
2023/12/08 00:17:17;;;;;;;1.10;1.10;;;;;;;1.58;65.42;97967.16;5056924;28;20123;-78
2023/12/08 00:19:43;;;;;;;1.10;1.10;;;;;;;1.71;64.24;97960.81;5057249;28;20047;-78
2023/12/08 00:22:08;;;;;;;1.05;1.05;;;;;;;1.66;64.46;97968.47;5054463;28;20828;-78
2023/12/08 00:24:34;;;;;;;1.10;1.10;;;;;;;1.70;63.86;97966.91;5051771;28;20048;-77
2023/12/08 00:27:00;;;;;;;1.10;1.10;;;;;;;1.73;64.09;97973.25;5056202;28;20131;-78
2023/12/08 00:29:25;;;;;;;1.00;1.00;;;;;;;1.72;63.96;97976.66;5052769;28;20055;-77
2023/12/08 00:31:51;;;;;;;1.10;1.10;;;;;;;1.77;63.32;97962.06;5052964;28;20106;-77
2023/12/08 00:34:17;;;;;;;1.00;1.00;;;;;;;1.71;64.31;97959.09;5054717;28;20245;-77
2023/12/08 00:36:43;;;;;;;1.10;1.10;;;;;;;1.64;64.28;97966.63;5053217;28;20471;-77
2023/12/08 00:39:09;;;;;;;1.10;1.10;;;;;;;1.53;64.42;97976.56;5052093;28;20059;-78
2023/12/08 00:41:34;;;;;;;1.10;1.10;;;;;;;1.61;66.29;97991.00;5053613;28;20170;-76
2023/12/08 00:44:00;;;;;;;1.00;1.00;;;;;;;1.39;68.12;97967.97;5039770;28;20033;-77
2023/12/08 00:46:25;;;;;;;0.90;0.90;;;;;;;1.26;69.18;97987.44;5053181;28;20117;-78
2023/12/08 00:48:50;;;;;;;1.10;1.10;;;;;;;1.15;70.06;97967.59;5053480;28;20435;-77
2023/12/08 00:51:16;;;;;;;1.10;1.10;;;;;;;1.25;69.07;97974.22;5054023;28;20041;-78
2023/12/08 00:53:42;;;;;;;1.00;1.00;;;;;;;1.17;69.71;97971.19;5058792;28;20089;-77
2023/12/08 00:56:08;;;;;;;1.10;1.10;;;;;;;1.10;69.57;97955.00;5056165;28;20039;-78
2023/12/08 00:58:33;;;;;;;1.08;1.08;;;;;;;1.04;70.40;97939.81;5053616;28;20402;-78
2023/12/08 01:00:59;;;;;;;1.10;1.10;;;;;;;1.07;70.01;97928.59;5060839;28;20036;-77
2023/12/08 01:03:24;;;;;;;1.10;1.10;;;;;;;1.11;69.69;97944.59;5056713;28;20043;-78
2023/12/08 01:05:49;;;;;;;1.10;1.10;;;;;;;1.02;69.56;97958.13;5053641;28;20032;-78
2023/12/08 01:08:15;;;;;;;1.02;1.02;;;;;;;1.10;69.53;97942.78;5055524;28;20055;-78
2023/12/08 01:10:40;;;;;;;1.10;1.10;;;;;;;1.17;68.14;97946.66;5053813;28;20124;-78
2023/12/08 01:13:06;;;;;;;1.10;1.10;;;;;;;1.20;69.19;97950.34;5053772;28;20104;-78
2023/12/08 01:15:31;;;;;;;1.00;1.00;;;;;;;1.41;68.68;97978.56;5052439;28;20490;-78
2023/12/08 01:17:58;;;;;;;1.10;1.10;;;;;;;1.33;69.46;97966.72;5052627;28;20111;-78
2023/12/08 01:20:23;;;;;;;1.10;1.10;;;;;;;1.23;69.56;97949.59;5082539;28;20044;-78
2023/12/08 01:22:49;;;;;;;1.10;1.10;;;;;;;1.22;70.21;97938.19;5056930;28;20047;-78
2023/12/08 01:25:15;;;;;;;1.05;1.05;;;;;;;1.32;68.51;97930.78;5058274;28;20040;-77
2023/12/08 01:27:40;;;;;;;1.02;1.02;;;;;;;1.38;67.70;97916.22;5054329;28;20028;-77
2023/12/08 01:30:06;;;;;;;1.02;1.02;;;;;;;1.58;65.19;97935.63;5057681;28;20039;-78
2023/12/08 01:32:31;;;;;;;1.00;1.00;;;;;;;1.76;64.40;97914.63;5053371;28;20477;-77
2023/12/08 01:34:57;;;;;;;1.10;1.10;;;;;;;1.62;66.43;97908.69;5055039;28;20028;-77
2023/12/08 01:37:22;;;;;;;1.10;1.10;;;;;;;1.65;64.08;97937.75;5054719;28;20040;-78
2023/12/08 01:39:48;;;;;;;1.00;1.00;;;;;;;1.69;63.72;97930.94;5052065;28;20051;-77
2023/12/08 01:42:13;;;;;;;1.10;1.10;;;;;;;1.67;64.91;97920.31;5052836;28;20982;-78
2023/12/08 01:44:39;;;;;;;1.00;1.00;;;;;;;1.71;64.95;97893.38;5057220;28;20037;-78
2023/12/08 01:47:07;;;;;;;1.10;1.10;;;;;;;1.70;64.15;97888.94;5052282;28;22008;-78
2023/12/08 01:49:34;;;;;;;1.00;1.00;;;;;;;1.75;64.11;97874.28;5057764;28;20032;-78
2023/12/08 01:52:00;;;;;;;1.00;1.00;;;;;;;1.87;62.40;97862.56;5052384;28;20502;-78
2023/12/08 01:54:26;;;;;;;1.10;1.10;;;;;;;1.89;62.57;97861.81;5054407;28;20033;-78
2023/12/08 01:56:51;;;;;;;1.00;1.00;;;;;;;1.94;62.86;97856.78;5057204;28;20037;-78
2023/12/08 01:59:17;;;;;;;1.10;1.10;;;;;;;2.02;62.10;97850.16;5054028;28;20059;-78
2023/12/08 02:01:43;;;;;;;1.10;1.10;;;;;;;2.01;61.91;97854.53;5055702;28;20128;-78
2023/12/08 02:04:08;;;;;;;0.90;0.90;;;;;;;2.00;62.23;97876.38;5060900;28;20098;-78
2023/12/08 02:06:35;;;;;;;1.10;1.10;;;;;;;2.01;62.48;97890.44;5057351;28;20112;-78
2023/12/08 02:09:00;;;;;;;1.10;1.10;;;;;;;1.93;63.56;97911.13;5054310;28;20033;-78
2023/12/08 02:11:26;;;;;;;1.10;1.10;;;;;;;1.86;63.43;97916.88;5053583;28;20716;-78
2023/12/08 02:13:53;;;;;;;1.10;1.10;;;;;;;1.74;65.05;97916.28;5058054;28;20115;-78
2023/12/08 02:16:32;;;;;;;1.10;1.10;;;;;;;1.59;65.48;97920.78;5059292;28;20102;-78
2023/12/08 02:18:57;;;;;;;1.00;1.00;;;;;;;1.47;65.76;97915.78;5056563;28;20036;-78
2023/12/08 02:21:24;;;;;;;1.00;1.00;;;;;;;1.43;65.98;97916.44;5057426;28;20047;-78
2023/12/08 02:23:49;;;;;;;1.00;1.00;;;;;;;1.47;67.61;97905.28;5056243;28;20433;-78
2023/12/08 02:26:19;;;;;;;1.00;1.00;;;;;;;1.50;66.51;97911.59;5058110;28;20540;-78
2023/12/08 02:28:45;;;;;;;0.90;0.90;;;;;;;1.44;66.86;97919.19;5055797;28;20107;-78
2023/12/08 02:31:15;;;;;;;1.00;1.00;;;;;;;1.41;68.27;97902.34;5056291;28;21024;-78
2023/12/08 02:33:44;;;;;;;1.10;1.10;;;;;;;1.33;68.78;97906.28;5052945;28;20039;-78
2023/12/08 02:36:10;;;;;;;1.02;1.02;;;;;;;1.30;68.71;97904.44;5059112;28;20041;-78
2023/12/08 02:38:37;;;;;;;1.00;1.00;;;;;;;1.28;69.01;97906.97;5059556;28;20193;-78
2023/12/08 02:41:03;;;;;;;1.10;1.10;;;;;;;1.29;68.48;97907.84;5055199;28;20033;-78
2023/12/08 02:43:28;;;;;;;1.10;1.10;;;;;;;1.32;69.53;97912.38;5053962;28;20048;-78
2023/12/08 02:45:54;;;;;;;0.88;0.88;;;;;;;1.35;70.24;97902.03;5058617;28;20033;-78
2023/12/08 02:48:19;;;;;;;1.10;1.10;;;;;;;1.34;70.45;97903.72;5059429;28;20032;-78
2023/12/08 02:50:46;;;;;;;1.00;1.00;;;;;;;1.30;72.23;97888.66;5057967;28;20029;-79
2023/12/08 02:53:11;;;;;;;1.00;1.00;;;;;;;1.17;71.86;97892.38;5057660;28;20093;-78
2023/12/08 02:55:37;;;;;;;1.02;1.02;;;;;;;1.08;73.09;97889.25;5057474;28;20043;-78
2023/12/08 02:58:02;;;;;;;1.00;1.00;;;;;;;1.14;72.36;97896.56;5057207;28;20082;-77
2023/12/08 03:00:30;;;;;;;1.10;1.10;;;;;;;1.07;72.61;97899.69;5055868;28;20040;-79
2023/12/08 03:02:56;;;;;;;1.10;1.10;;;;;;;1.00;73.49;97883.59;5043785;28;20162;-79
2023/12/08 03:05:21;;;;;;;1.00;1.00;;;;;;;1.08;73.24;97912.91;5055704;28;20331;-78
2023/12/08 03:07:46;;;;;;;0.98;0.98;;;;;;;1.11;73.31;97907.81;5058232;28;20037;-78
2023/12/08 03:10:13;;;;;;;1.08;1.08;;;;;;;1.10;73.20;97884.09;5047369;28;20503;-78
2023/12/08 03:12:38;;;;;;;1.10;1.10;;;;;;;0.97;74.77;97893.97;5059793;28;20048;-78
2023/12/08 03:15:04;;;;;;;1.00;1.00;;;;;;;0.90;75.15;97881.31;5055628;28;20035;-78
2023/12/08 03:17:29;;;;;;;1.10;1.10;;;;;;;0.91;75.17;97872.66;5061930;28;20033;-78
2023/12/08 03:19:55;;;;;;;1.05;1.05;;;;;;;0.85;75.52;97880.19;5056434;28;20087;-78
2023/12/08 03:22:20;;;;;;;0.90;0.90;;;;;;;0.81;75.45;97878.19;5056433;28;20075;-78
2023/12/08 03:24:46;;;;;;;1.00;1.00;;;;;;;0.65;76.26;97876.50;5054335;28;20121;-79
2023/12/08 03:27:11;;;;;;;1.00;1.00;;;;;;;0.71;76.08;97878.53;5057938;28;20119;-77
2023/12/08 03:29:40;;;;;;;0.90;0.90;;;;;;;0.70;76.23;97875.00;5062764;28;20075;-78
2023/12/08 03:32:07;;;;;;;1.00;1.00;;;;;;;0.70;76.77;97872.38;5052986;28;20029;-78
2023/12/08 03:34:33;;;;;;;1.10;1.10;;;;;;;0.65;77.14;97883.47;5053734;28;20041;-78
2023/12/08 03:36:58;;;;;;;1.00;1.00;;;;;;;0.69;77.43;97877.56;5056954;28;20154;-78
2023/12/08 03:39:24;;;;;;;1.10;1.10;;;;;;;0.65;78.14;97866.00;5056478;28;20037;-78
2023/12/08 03:41:49;;;;;;;1.10;1.10;;;;;;;0.72;77.25;97859.38;5055426;28;20056;-78
2023/12/08 03:44:15;;;;;;;1.00;1.00;;;;;;;0.60;78.22;97856.06;5056045;28;20041;-78
2023/12/08 03:46:43;;;;;;;1.10;1.10;;;;;;;0.59;78.53;97857.81;5055128;28;20048;-77
2023/12/08 03:49:09;;;;;;;1.10;1.10;;;;;;;0.66;78.75;97854.66;5056195;28;20494;-78
2023/12/08 03:51:34;;;;;;;1.10;1.10;;;;;;;0.68;78.15;97862.66;5054582;28;20042;-78
2023/12/08 03:54:00;;;;;;;1.10;1.10;;;;;;;0.73;77.66;97840.16;5054862;28;20037;-78
2023/12/08 03:56:25;;;;;;;1.10;1.10;;;;;;;0.64;78.03;97843.19;5052813;28;20040;-78
2023/12/08 03:58:51;;;;;;;1.05;1.05;;;;;;;0.60;78.67;97867.47;5059759;28;20052;-78
2023/12/08 04:01:20;;;;;;;1.00;1.00;;;;;;;0.56;78.44;97860.25;5055049;28;20036;-78
2023/12/08 04:03:46;;;;;;;1.00;1.00;;;;;;;0.52;78.38;97859.19;5061122;28;20048;-78
2023/12/08 04:06:12;;;;;;;1.10;1.10;;;;;;;0.56;78.46;97885.59;5059767;28;20039;-78
2023/12/08 04:08:37;;;;;;;0.98;0.98;;;;;;;0.72;77.83;97896.13;5055411;28;20037;-78
2023/12/08 04:11:03;;;;;;;1.10;1.10;;;;;;;0.63;77.92;97880.78;5054017;28;20060;-78
2023/12/08 04:13:29;;;;;;;1.10;1.10;;;;;;;0.56;78.11;97876.00;5055046;28;20475;-78
2023/12/08 04:15:54;;;;;;;1.08;1.08;;;;;;;0.52;79.60;97888.03;5053041;28;20036;-78
2023/12/08 04:18:20;;;;;;;1.05;1.05;;;;;;;0.67;78.83;97876.56;5053625;28;20086;-79
2023/12/08 04:20:45;;;;;;;0.90;0.90;;;;;;;0.76;78.82;97859.59;5055363;28;20500;-78
2023/12/08 04:23:11;;;;;;;0.90;0.90;;;;;;;0.72;78.83;97864.63;5054871;28;20067;-78
2023/12/08 04:25:39;;;;;;;1.10;1.10;;;;;;;0.70;79.37;97871.50;5056687;28;20043;-78
2023/12/08 04:28:05;;;;;;;1.00;1.00;;;;;;;0.75;79.13;97881.41;5052554;28;20029;-78
2023/12/08 04:30:31;;;;;;;1.00;1.00;;;;;;;0.66;78.98;97891.41;5054650;28;20063;-78
2023/12/08 04:32:57;;;;;;;1.02;1.02;;;;;;;0.77;78.68;97907.78;5052733;28;20040;-78
2023/12/08 04:35:24;;;;;;;1.10;1.10;;;;;;;0.70;79.22;97903.00;5056670;28;20584;-77
2023/12/08 04:37:50;;;;;;;1.10;1.10;;;;;;;0.65;79.09;97905.38;5057883;28;20111;-78
2023/12/08 04:40:16;;;;;;;1.10;1.10;;;;;;;0.58;79.25;97918.09;5054940;28;20136;-77
2023/12/08 04:42:42;;;;;;;1.00;1.00;;;;;;;0.65;80.35;97917.59;5055261;28;20044;-78
2023/12/08 04:45:09;;;;;;;1.00;1.00;;;;;;;0.82;79.83;97919.41;5052344;28;20111;-78
2023/12/08 04:47:35;;;;;;;1.00;1.00;;;;;;;0.82;79.61;97919.41;5053816;28;20099;-78
2023/12/08 04:50:01;;;;;;;1.10;1.10;;;;;;;0.75;79.53;97912.91;5059166;28;20040;-78
2023/12/08 04:52:26;;;;;;;1.10;1.10;;;;;;;0.58;79.77;97904.97;5054065;28;20048;-79
2023/12/08 04:54:51;;;;;;;1.00;1.00;;;;;;;0.52;79.62;97916.00;5058487;28;20135;-78
2023/12/08 04:57:17;;;;;;;1.10;1.10;;;;;;;0.55;79.59;97916.19;5051485;28;20041;-78
2023/12/08 04:59:42;;;;;;;1.00;1.00;;;;;;;0.63;79.62;97911.38;5053930;28;20098;-78
2023/12/08 05:02:08;;;;;;;1.10;1.10;;;;;;;0.60;80.00;97906.84;5051503;28;20032;-78
2023/12/08 05:04:34;;;;;;;1.10;1.10;;;;;;;0.78;79.35;97920.06;5058366;28;20474;-78
2023/12/08 05:07:00;;;;;;;1.10;1.10;;;;;;;0.75;78.43;97925.13;5056312;28;20125;-78
2023/12/08 05:09:25;;;;;;;1.00;1.00;;;;;;;0.80;77.48;97913.16;5040602;28;20507;-77
2023/12/08 05:11:51;;;;;;;1.00;1.00;;;;;;;0.93;78.39;97901.59;5053159;28;20057;-78
2023/12/08 05:14:16;;;;;;;1.00;1.00;;;;;;;0.95;78.87;97886.81;5054634;28;20930;-78
2023/12/08 05:16:41;;;;;;;1.10;1.10;;;;;;;0.85;78.48;97895.94;5056434;28;20039;-79
2023/12/08 05:19:07;;;;;;;1.00;1.00;;;;;;;0.79;80.08;97892.09;5052198;28;20037;-78
2023/12/08 05:21:33;;;;;;;0.90;0.90;;;;;;;0.79;79.87;97885.09;5060279;28;20037;-78
2023/12/08 05:23:58;;;;;;;1.00;1.00;;;;;;;0.81;80.34;97888.72;5061053;28;20127;-78
2023/12/08 05:26:25;;;;;;;0.90;0.90;;;;;;;0.85;80.32;97889.78;5052865;28;20118;-79
2023/12/08 05:28:51;;;;;;;1.10;1.10;;;;;;;0.90;81.67;97886.56;5055993;28;20461;-78
2023/12/08 05:31:16;;;;;;;1.02;1.02;;;;;;;0.94;82.73;97878.03;5056641;28;20482;-79
2023/12/08 05:33:42;;;;;;;1.10;1.10;;;;;;;0.82;82.63;97866.91;5058521;28;20036;-79
2023/12/08 05:36:09;;;;;;;1.08;1.08;;;;;;;0.81;82.87;97875.56;5059039;28;20036;-79
2023/12/08 05:38:34;;;;;;;1.10;1.10;;;;;;;0.84;83.60;97873.13;5056400;28;20091;-79
2023/12/08 05:41:00;;;;;;;1.00;1.00;;;;;;;0.93;84.21;97878.88;5055700;28;20510;-79
2023/12/08 05:43:25;;;;;;;1.00;1.00;;;;;;;0.98;84.52;97871.22;5056480;28;20040;-79
2023/12/08 05:45:50;;;;;;;1.00;1.00;;;;;;;0.90;84.13;97864.66;5061275;28;20044;-78
2023/12/08 05:48:16;;;;;;;1.00;1.00;;;;;;;0.91;84.92;97871.72;5056942;28;20037;-79
2023/12/08 05:50:41;;;;;;;1.08;1.08;;;;;;;0.94;85.05;97867.53;5057108;28;20487;-78
2023/12/08 05:53:07;;;;;;;1.05;1.05;;;;;;;1.03;86.04;97867.13;5055481;28;20157;-79
2023/12/08 05:55:32;;;;;;;1.10;1.10;;;;;;;0.99;86.29;97876.56;5059371;28;20098;-80
2023/12/08 05:57:57;;;;;;;1.10;1.10;;;;;;;1.07;86.75;97873.44;5059419;28;20036;-79
2023/12/08 06:00:23;;;;;;;1.10;1.10;;;;;;;1.10;86.80;97866.59;5058485;28;20036;-79
2023/12/08 06:02:48;;;;;;;1.10;1.10;;;;;;;1.13;87.41;97869.38;5059396;28;20101;-79
2023/12/08 06:05:15;;;;;;;1.10;1.10;;;;;;;1.26;86.90;97878.81;5061094;28;20063;-78
2023/12/08 06:07:40;;;;;;;1.10;1.10;;;;;;;1.22;87.60;97875.13;5060132;28;20063;-78
2023/12/08 06:10:11;;;;;;;1.00;1.00;;;;;;;1.28;87.58;97878.06;5058302;28;20111;-78
2023/12/08 06:12:37;;;;;;;1.00;1.00;;;;;;;1.27;87.74;97877.97;5055187;28;20036;-78
2023/12/08 06:15:03;;;;;;;1.10;1.10;;;;;;;1.27;87.44;97883.25;5056851;28;20094;-78
2023/12/08 06:17:29;;;;;;;1.10;1.10;;;;;;;1.20;87.68;97876.78;5074051;28;20041;-79
2023/12/08 06:19:54;;;;;;;1.10;1.10;;;;;;;1.23;88.33;97881.28;5067084;28;20037;-79
2023/12/08 06:22:19;;;;;;;1.00;1.00;;;;;;;1.21;87.66;97869.81;5058617;28;20105;-80
2023/12/08 06:24:45;;;;;;;1.00;1.00;;;;;;;1.27;87.35;97868.38;5055841;28;20032;-79
2023/12/08 06:27:11;;;;;;;1.05;1.05;;;;;;;1.24;87.05;97859.44;5045305;28;20051;-80
2023/12/08 06:29:36;;;;;;;1.00;1.00;;;;;;;1.26;88.35;97860.44;5056487;28;20049;-79
2023/12/08 06:32:02;;;;;;;1.00;1.00;;;;;;;1.23;89.16;97861.16;5057892;28;20463;-80
2023/12/08 06:34:28;;;;;;;1.10;1.10;;;;;;;1.39;88.83;97846.16;5076370;28;20607;-79
2023/12/08 06:36:54;;;;;;;1.00;1.00;;;;;;;1.81;85.25;97836.88;5056500;28;20522;-81
2023/12/08 06:39:20;;;;;;;1.00;1.00;;;;;;;2.11;83.40;97841.78;5056825;28;20106;-80
2023/12/08 06:41:45;;;;;;;1.02;1.02;;;;;;;2.14;83.16;97841.94;5085881;28;20140;-79
2023/12/08 06:44:11;;;;;;;1.10;1.10;;;;;;;2.17;82.78;97845.63;5056354;28;20163;-80
2023/12/08 06:46:36;;;;;;;1.10;1.10;;;;;;;1.99;84.20;97858.81;5059158;28;20398;-79
2023/12/08 06:49:02;;;;;;;1.05;1.05;;;;;;;1.92;84.98;97845.31;5059136;28;20084;-79
2023/12/08 06:51:28;;;;;;;1.08;1.08;;;;;;;1.82;86.07;97843.03;5055154;28;20045;-78
2023/12/08 06:53:53;;;;;;;1.00;1.00;;;;;;;1.90;85.97;97847.84;5057635;28;20147;-78
2023/12/08 06:56:21;;;;;;;1.10;1.10;;;;;;;1.84;85.98;97852.81;5085704;28;20127;-78
2023/12/08 06:58:46;;;;;;;;;;;;;;;1.77;85.76;97846.38;5055290;28;20040;-78
2023/12/08 07:01:11;;;;;;;1.10;1.10;;;;;;;1.65;87.08;97852.72;5053293;28;19913;-80
2023/12/08 07:03:37;;;;;;;1.10;1.10;;;;;;;1.60;86.98;97854.22;5086370;28;20465;-78
2023/12/08 07:06:03;;;;;;;1.10;1.10;;;;;;;1.46;87.52;97854.44;5059688;28;20098;-78
2023/12/08 07:08:28;;;;;;;1.00;1.00;;;;;;;1.49;87.48;97848.44;5058152;28;20079;-77
2023/12/08 07:10:54;;;;;;;0.90;0.90;;;;;;;1.33;88.28;97854.63;5055338;28;20057;-78
2023/12/08 07:13:19;;;;;;;1.10;1.10;;;;;;;1.45;88.16;97854.38;5053850;28;20052;-78
2023/12/08 07:15:44;;;;;;;1.00;1.00;;;;;;;1.39;88.60;97861.94;5056440;28;20047;-78
2023/12/08 07:18:10;;;;;;;1.10;1.10;;;;;;;1.36;89.94;97867.94;5056366;28;20037;-78
2023/12/08 07:20:35;;;;;;;1.00;1.00;;;;;;;1.37;90.09;97859.22;5055126;28;20041;-78
2023/12/08 07:23:01;;;;;;;1.00;1.00;;;;;;;1.52;89.86;97864.34;5055144;28;20048;-78
2023/12/08 07:25:26;;;;;;;1.00;1.00;;;;;;;1.58;89.85;97856.75;5055589;28;20041;-78
2023/12/08 07:27:52;;;;;;;1.10;1.10;;;;;;;1.60;89.95;97863.03;5047127;28;20041;-77
2023/12/08 07:30:17;;;;;;;1.00;1.00;;;;;;;1.65;89.68;97861.53;5054659;28;20053;-78
2023/12/08 07:32:43;;;;;;;1.00;1.00;;;;;;;1.67;89.75;97869.47;5054702;28;20036;-77
2023/12/08 07:35:08;;;;;;;1.00;1.00;;;;;;;1.68;89.71;97880.09;5056360;28;20613;-77
2023/12/08 07:37:38;;;;;;;1.10;1.10;;;;;;;1.73;90.07;97878.59;5059561;28;20044;-77
2023/12/08 07:40:05;;;;;;;1.10;1.10;;;;;;;1.77;89.96;97882.25;5056884;28;20051;-78
2023/12/08 07:42:30;;;;;;;1.10;1.10;;;;;;;1.89;89.81;97884.59;5057772;28;20045;-78
2023/12/08 07:44:56;;;;;;;1.00;1.00;;;;;;;1.83;89.68;97887.81;5053319;28;20147;-78
2023/12/08 07:47:21;;;;;;;1.00;1.00;;;;;;;1.86;89.50;97890.59;5054886;28;20044;-78
2023/12/08 07:49:47;;;;;;;1.10;1.10;;;;;;;1.90;89.46;97894.28;5055900;28;20032;-78
2023/12/08 07:52:14;;;;;;;1.08;1.08;;;;;;;1.82;90.21;97895.63;5056268;28;20083;-77
2023/12/08 07:54:40;;;;;;;1.00;1.00;;;;;;;1.74;90.85;97896.16;5055986;28;20033;-77
2023/12/08 07:57:05;;;;;;;1.00;1.00;;;;;;;1.82;90.96;97895.63;5055976;28;20364;-77
2023/12/08 07:59:31;;;;;;;1.10;1.10;;;;;;;1.96;90.87;97899.81;5057081;28;20033;-77
2023/12/08 08:01:56;;;;;;;1.00;1.00;;;;;;;2.13;90.16;97891.03;5053530;28;20036;-77
2023/12/08 08:04:21;;;;;;;1.10;1.10;;;;;;;2.08;90.55;97892.56;5052101;28;20045;-78
2023/12/08 08:06:47;;;;;;;1.00;1.00;;;;;;;2.17;90.13;97898.25;5057654;28;20093;-78
2023/12/08 08:09:13;;;;;;;1.08;1.08;;;;;;;2.24;90.20;97889.81;5063424;28;20127;-77
2023/12/08 08:11:38;;;;;;;1.10;1.10;;;;;;;2.26;90.42;97888.19;5056278;28;20129;-77
2023/12/08 08:14:04;;;;;;;1.10;1.10;;;;;;;2.29;90.34;97890.03;5054052;28;20094;-77
2023/12/08 08:16:29;;;;;;;1.10;1.10;;;;;;;2.36;90.48;97892.16;5055958;28;20045;-77
2023/12/08 08:18:55;;;;;;;1.00;1.00;;;;;;;2.49;90.25;97888.34;5053606;28;20051;-77
2023/12/08 08:21:20;;;;;;;1.00;1.00;;;;;;;2.46;89.86;97898.75;5056716;28;20094;-78
2023/12/08 08:23:45;;;;;;;0.90;0.90;;;;;;;2.44;90.01;97895.13;5052231;28;20045;-77
2023/12/08 08:26:11;;;;;;;1.08;1.08;;;;;;;2.50;90.05;97903.31;5052868;28;20064;-77
2023/12/08 08:28:36;;;;;;;1.00;1.00;;;;;;;2.54;90.51;97898.28;5054930;28;20711;-77
2023/12/08 08:31:02;;;;;;;1.00;1.00;;;;;;;2.61;90.63;97903.81;5053299;28;20047;-77
2023/12/08 08:33:27;;;;;;;1.00;1.00;;;;;;;2.63;90.51;97891.63;5055338;28;20045;-77
2023/12/08 08:35:53;;;;;;;0.90;0.90;;;;;;;2.85;89.80;97899.69;5053317;28;20045;-78
2023/12/08 08:38:18;;;;;;;1.10;1.10;;;;;;;2.84;90.05;97905.78;5053040;28;20039;-78
2023/12/08 08:40:47;;;;;;;0.90;0.90;;;;;;;2.94;89.69;97900.09;5054634;28;20048;-77
2023/12/08 08:43:12;;;;;;;0.90;0.90;;;;;;;2.95;89.62;97909.81;5055077;28;20468;-77
2023/12/08 08:45:38;;;;;;;0.90;0.90;;;;;;;3.00;89.76;97902.09;5055115;28;20060;-77
2023/12/08 08:48:04;;;;;;;0.90;0.90;;;;;;;2.93;89.66;97915.84;5057512;28;20036;-77
2023/12/08 08:50:30;;;;;;;1.00;1.00;;;;;;;2.91;89.92;97906.97;5052383;28;20770;-79
2023/12/08 08:52:55;;;;;;;0.90;0.90;;;;;;;3.00;89.91;97904.75;5055589;28;20037;-77
2023/12/08 08:55:21;;;;;;;0.90;0.90;;;;;;;3.09;89.94;97907.78;5053757;28;20159;-78
2023/12/08 08:57:47;;;;;;;0.95;0.95;;;;;;;3.09;90.24;97911.31;5060219;28;20482;-77
2023/12/08 09:00:13;;;;;;;0.75;0.75;;;;;;;3.17;90.13;97908.16;5053289;28;20059;-77
2023/12/08 09:02:40;;;;;;;0.90;0.90;;;;;;;3.18;90.09;97913.47;5083221;28;20072;-77
2023/12/08 09:05:06;;;;;;;0.98;0.98;;;;;;;3.24;90.10;97910.22;5050039;28;20040;-77
2023/12/08 09:07:32;;;;;;;0.90;0.90;;;;;;;3.30;90.34;97913.09;5049933;28;20095;-77
2023/12/08 09:09:58;;;;;;;0.90;0.90;;;;;;;3.34;90.06;97913.31;5060837;28;20072;-77
2023/12/08 09:12:23;;;;;;;0.90;0.90;;;;;;;3.39;90.00;97909.97;5052822;28;20038;-77
2023/12/08 09:14:49;;;;;;;1.00;1.00;;;;;;;3.39;89.73;97909.97;5054289;28;20044;-78
2023/12/08 09:17:14;;;;;;;1.00;1.00;;;;;;;3.43;90.27;97909.28;5053813;28;20056;-78
2023/12/08 09:19:40;;;;;;;0.80;0.80;;;;;;;3.36;90.50;97910.75;5056590;28;20037;-77
2023/12/08 09:22:05;;;;;;;0.80;0.80;;;;;;;3.51;90.80;97911.41;5086448;28;20118;-77
2023/12/08 09:24:31;;;;;;;0.90;0.90;;;;;;;3.52;90.25;97918.50;5039033;28;20178;-78
2023/12/08 09:26:56;;;;;;;0.90;0.90;;;;;;;3.60;90.00;97919.72;5053844;28;20090;-78
2023/12/08 09:29:22;;;;;;;0.90;0.90;;;;;;;3.73;89.88;97917.59;5052821;28;20072;-77
2023/12/08 09:31:48;;;;;;;0.90;0.90;;;;;;;3.77;89.94;97919.53;5054839;28;20473;-78
2023/12/08 09:34:13;;;;;;;0.88;0.88;;;;;;;3.83;89.71;97920.72;5057127;28;20140;-77
2023/12/08 09:36:38;;;;;;;0.90;0.90;;;;;;;3.92;89.65;97925.44;5053232;28;20052;-78
2023/12/08 09:39:04;;;;;;;0.82;0.82;;;;;;;3.91;89.11;97917.47;5053224;28;20143;-78
2023/12/08 09:41:30;;;;;;;0.88;0.88;;;;;;;3.97;89.17;97923.00;5054297;28;20036;-77
2023/12/08 09:44:11;;;;;;;0.90;0.90;;;;;;;4.03;89.58;97918.00;5055350;28;20158;-78
2023/12/08 09:46:37;;;;;;;0.90;0.90;;;;;;;4.05;89.47;97927.78;5048851;28;20124;-77
2023/12/08 09:49:07;;;;;;;0.90;0.90;;;;;;;4.15;89.59;97918.50;5055447;28;20069;-77
2023/12/08 09:51:32;;;;;;;0.88;0.88;;;;;;;4.20;89.14;97911.66;5054924;28;20500;-77
2023/12/08 09:53:58;;;;;;;0.90;0.90;;;;;;;4.26;89.26;97913.63;5053107;28;20482;-77
2023/12/08 09:56:25;;;;;;;0.80;0.80;;;;;;;4.33;89.25;97913.06;5051840;28;20103;-77
2023/12/08 09:58:51;;;;;;;0.90;0.90;;;;;;;4.26;89.17;97913.63;5053806;28;20044;-77
2023/12/08 10:01:17;;;;;;;0.90;0.90;;;;;;;4.18;88.87;97908.06;5053103;28;20362;-77
2023/12/08 10:03:44;;;;;;;0.80;0.80;;;;;;;4.13;89.14;97901.69;5054460;28;20052;-77
2023/12/08 10:06:12;;;;;;;0.82;0.82;;;;;;;4.05;89.47;97904.03;5059551;28;20521;-77
2023/12/08 10:08:37;;;;;;;0.82;0.82;;;;;;;4.16;89.84;97899.16;5053621;28;20045;-77
2023/12/08 10:11:05;;;;;;;0.80;0.80;;;;;;;4.15;90.07;97901.75;5056880;28;20040;-78
2023/12/08 10:13:31;;;;;;;0.80;0.80;;;;;;;4.17;90.47;97901.00;5056795;28;20494;-77
2023/12/08 10:15:58;;;;;;;0.80;0.80;;;;;;;4.21;90.54;97902.00;5052372;28;20050;-78
2023/12/08 10:18:27;;;;;;;0.90;0.90;;;;;;;4.27;90.40;97892.59;5053281;28;20713;-77
2023/12/08 10:21:21;;;;;;;0.90;0.90;;;;;;;4.41;90.17;97900.16;5055856;28;20115;-77
2023/12/08 10:23:46;;;;;;;0.85;0.85;;;;;;;4.49;90.25;97898.72;5054344;28;20040;-77
2023/12/08 10:26:13;;;;;;;0.80;0.80;;;;;;;4.49;89.97;97894.34;5056858;28;20383;-78
2023/12/08 10:28:39;;;;;;;0.80;0.80;;;;;;;4.57;89.62;97890.25;5057663;28;20040;-78
2023/12/08 10:31:08;;;;;;;0.80;0.80;;;;;;;4.56;89.88;97895.50;5055116;28;20036;-77
2023/12/08 10:33:34;;;;;;;0.73;0.73;;;;;;;4.68;89.77;97893.31;5053849;28;20041;-77
2023/12/08 10:35:59;;;;;;;0.73;0.73;;;;;;;4.64;89.86;97891.38;5055812;28;20039;-77
2023/12/08 10:38:25;;;;;;;0.80;0.80;;;;;;;4.69;89.87;97886.28;5056441;28;20048;-77
2023/12/08 10:40:52;;;;;;;0.80;0.80;;;;;;;4.74;90.27;97890.88;5063064;28;20036;-77
2023/12/08 10:43:22;;;;;;;;;;;;;;;4.76;89.89;97891.88;5057615;28;20041;-76
2023/12/08 10:45:50;;;;;;;0.82;0.82;;;;;;;4.77;89.93;97884.84;5055218;28;19920;-77
2023/12/08 10:48:19;;;;;;;0.80;0.80;;;;;;;4.74;90.12;97892.63;5064224;28;20040;-77
2023/12/08 10:50:46;;;;;;;0.80;0.80;;;;;;;4.79;90.17;97888.41;5056030;28;20037;-77
2023/12/08 10:53:12;;;;;;;0.90;0.90;;;;;;;4.77;90.15;97896.31;5056016;28;20047;-77
2023/12/08 10:55:38;;;;;;;0.90;0.90;;;;;;;4.75;89.93;97895.34;5056622;28;20037;-77
2023/12/08 10:58:07;;;;;;;0.80;0.80;;;;;;;4.68;90.88;97890.66;5056083;28;20041;-77
2023/12/08 11:00:33;;;;;;;0.85;0.85;;;;;;;4.83;90.81;97895.63;5057387;28;20044;-77
2023/12/08 11:03:04;;;;;;;0.80;0.80;;;;;;;4.83;90.72;97888.59;5058084;28;20036;-78
2023/12/08 11:05:37;;;;;;;0.80;0.80;;;;;;;4.92;90.82;97895.97;5055492;28;20048;-77
2023/12/08 11:08:03;;;;;;;0.80;0.80;;;;;;;5.07;90.81;97898.28;5059332;28;20568;-77
2023/12/08 11:10:36;;;;;;;0.80;0.80;;;;;;;5.20;90.11;97897.00;5054211;28;20115;-76
2023/12/08 11:13:28;;;;;;;0.80;0.80;;;;;;;5.20;90.43;97886.44;5056906;28;20045;-77
2023/12/08 11:16:26;;;;;;;0.80;0.80;;;;;;;5.26;90.33;97886.66;5052182;28;20048;-77
2023/12/08 11:18:54;;;;;;;0.90;0.90;;;;;;;5.47;90.10;97886.53;5052575;28;20041;-77
2023/12/08 11:21:20;;;;;;;0.80;0.80;;;;;;;5.53;89.75;97889.38;5054757;28;20047;-77
2023/12/08 11:23:46;;;;;;;0.80;0.80;;;;;;;5.42;90.42;97889.00;5053495;28;20048;-77
2023/12/08 11:26:26;;;;;;;0.80;0.80;;;;;;;5.59;90.28;97886.94;5085702;28;20056;-77
2023/12/08 11:29:29;;;;;;;0.80;0.80;;;;;;;5.65;90.21;97892.44;5059189;28;20114;-77
2023/12/08 11:31:54;;;;;;;0.73;0.73;;;;;;;5.73;90.75;97890.06;5055097;28;20036;-77
2023/12/08 11:34:24;;;;;;;0.80;0.80;;;;;;;5.65;90.43;97890.72;5053634;28;20049;-77
2023/12/08 11:36:50;;;;;;;0.80;0.80;;;;;;;5.78;90.36;97894.66;5051899;28;20392;-77